Time;durP1;ratioP1;P1;durP2;ratioP2;P2;SDS_P1;SDS_P2;PMS_P1;PMS_P2;Temp;Humidity;BMP_temperature;BMP_pressure;BME280_temperature;BME280_humidity;BME280_pressure;Samples;Min_cycle;Max_cycle;Signal;HPM_P1;HPM_P2
2022/07/11 00:01:47;;;;;;;4.53;2.53;;;;;;;16.17;56.43;100120.28;4988686;28;20227;-77
2022/07/11 00:04:13;;;;;;;2.37;2.17;;;;;;;16.12;56.70;100124.13;4988056;28;20196;-77
2022/07/11 00:06:38;;;;;;;3.40;2.40;;;;;;;16.00;57.21;100125.09;4986498;28;20208;-77
2022/07/11 00:09:03;;;;;;;2.87;2.50;;;;;;;15.89;57.41;100111.84;4985043;28;20537;-76
2022/07/11 00:11:29;;;;;;;2.37;2.13;;;;;;;15.87;57.55;100119.88;4988386;28;20256;-77
2022/07/11 00:13:55;;;;;;;3.70;3.50;;;;;;;15.87;57.71;100113.75;4986858;28;20252;-77
2022/07/11 00:16:20;;;;;;;2.80;2.60;;;;;;;15.81;58.12;100111.59;4986004;28;21113;-77
2022/07/11 00:18:46;;;;;;;2.30;2.10;;;;;;;15.70;58.38;100102.66;4987384;28;20455;-77
2022/07/11 00:21:11;;;;;;;3.70;3.40;;;;;;;15.58;58.94;100097.41;4988308;28;20262;-77
2022/07/11 00:23:37;;;;;;;3.13;2.80;;;;;;;15.46;59.22;100107.16;4986809;28;20204;-77
2022/07/11 00:26:03;;;;;;;2.33;2.13;;;;;;;15.38;59.63;100106.91;4985253;28;20242;-77
2022/07/11 00:28:29;;;;;;;3.10;2.80;;;;;;;15.32;59.72;100105.56;4988396;28;20386;-77
2022/07/11 00:30:54;;;;;;;2.63;2.27;;;;;;;15.32;59.88;100107.38;4986020;28;21010;-76
2022/07/11 00:33:20;;;;;;;3.87;3.50;;;;;;;15.33;61.27;100103.75;4986196;28;20993;-76
2022/07/11 00:35:46;;;;;;;2.47;2.17;;;;;;;15.28;61.20;100101.44;4986878;28;20432;-77
2022/07/11 00:38:11;;;;;;;2.20;2.00;;;;;;;15.20;61.11;100094.09;4984801;28;20204;-77
2022/07/11 00:40:36;;;;;;;2.60;2.27;;;;;;;15.12;61.34;100101.78;4986312;28;20199;-77
2022/07/11 00:43:05;;;;;;;2.77;2.53;;;;;;;14.96;61.61;100107.34;4986936;28;20508;-77
2022/07/11 00:45:31;;;;;;;2.17;2.07;;;;;;;14.83;61.77;100104.75;4985749;28;20223;-77
2022/07/11 00:47:58;;;;;;;2.40;2.20;;;;;;;14.69;62.13;100104.94;4987543;28;20484;-77
2022/07/11 00:50:24;;;;;;;2.80;2.60;;;;;;;14.57;62.47;100105.81;4985336;28;21140;-77
2022/07/11 00:52:52;;;;;;;3.60;2.43;;;;;;;14.47;62.89;100099.47;4988817;28;20953;-76
2022/07/11 00:55:19;;;;;;;3.73;2.40;;;;;;;14.42;63.14;100101.59;4980829;28;20469;-77
2022/07/11 00:57:45;;;;;;;2.20;1.97;;;;;;;14.37;63.18;100099.28;4983638;28;20472;-77
2022/07/11 01:00:12;;;;;;;2.50;2.30;;;;;;;14.35;63.22;100101.19;4985361;28;20479;-77
2022/07/11 01:02:38;;;;;;;2.60;2.40;;;;;;;14.39;63.16;100100.00;4985554;28;20495;-77
2022/07/11 01:05:03;;;;;;;3.10;2.57;;;;;;;14.44;63.35;100104.97;4986304;28;20218;-77
2022/07/11 01:07:30;;;;;;;6.43;2.53;;;;;;;14.47;63.41;100096.81;4985100;28;20249;-77
2022/07/11 01:09:56;;;;;;;5.70;3.03;;;;;;;14.47;63.40;100096.81;4985184;28;20484;-77
2022/07/11 01:12:22;;;;;;;4.10;2.60;;;;;;;14.50;63.23;100099.25;4984078;28;20970;-77
2022/07/11 01:14:57;;;;;;;3.00;2.80;;;;;;;14.49;63.42;100093.13;4986852;28;20284;-77
2022/07/11 01:17:23;;;;;;;4.47;2.50;;;;;;;14.43;63.49;100090.91;4985457;28;20547;-77
2022/07/11 01:19:48;;;;;;;2.60;2.40;;;;;;;14.42;63.35;100088.38;4986736;28;20544;-77
2022/07/11 01:22:15;;;;;;;4.00;2.90;;;;;;;14.42;63.49;100083.97;4985405;28;20228;-77
2022/07/11 01:24:44;;;;;;;3.33;3.03;;;;;;;14.42;63.69;100077.81;4987129;28;20672;-77
2022/07/11 01:27:10;;;;;;;3.33;3.10;;;;;;;14.41;63.74;100082.25;4983458;28;20478;-76
2022/07/11 01:29:35;;;;;;;3.07;2.63;;;;;;;14.43;63.96;100083.00;4985865;28;20255;-77
2022/07/11 01:32:01;;;;;;;4.10;3.07;;;;;;;14.47;64.81;100078.31;4982376;28;20528;-77
2022/07/11 01:34:26;;;;;;;4.00;2.67;;;;;;;14.37;64.88;100079.00;4985754;28;20218;-77
2022/07/11 01:36:51;;;;;;;4.17;3.77;;;;;;;14.24;65.16;100079.97;4984219;28;20592;-77
2022/07/11 01:39:17;;;;;;;3.40;2.93;;;;;;;14.11;65.26;100072.91;4985835;28;20261;-77
2022/07/11 01:41:42;;;;;;;2.50;2.30;;;;;;;14.01;65.51;100074.50;4982247;28;20229;-77
2022/07/11 01:44:08;;;;;;;4.07;2.57;;;;;;;13.87;65.96;100070.19;4985815;28;20260;-77
2022/07/11 01:46:33;;;;;;;2.87;2.67;;;;;;;13.74;66.15;100077.28;4986343;28;20237;-77
2022/07/11 01:48:58;;;;;;;3.50;3.00;;;;;;;13.63;66.54;100078.03;4983920;28;20202;-77
2022/07/11 01:51:24;;;;;;;2.83;2.03;;;;;;;13.55;66.62;100076.88;4984899;28;20232;-77
2022/07/11 01:53:50;;;;;;;3.10;2.90;;;;;;;13.55;66.74;100068.97;4985489;28;20205;-77
2022/07/11 01:56:15;;;;;;;2.80;2.60;;;;;;;13.57;66.65;100074.97;4985324;28;20232;-76
2022/07/11 01:58:40;;;;;;;3.23;2.57;;;;;;;13.49;66.91;100073.69;4981866;28;20241;-77
2022/07/11 02:01:06;;;;;;;2.27;2.10;;;;;;;13.41;67.10;100073.38;4983769;28;20237;-76
2022/07/11 02:03:31;;;;;;;3.33;3.03;;;;;;;13.40;67.63;100066.41;4981111;28;20701;-77
2022/07/11 02:05:56;;;;;;;3.70;3.40;;;;;;;13.35;67.79;100068.53;4986482;28;20301;-76
2022/07/11 02:08:22;;;;;;;2.70;2.50;;;;;;;13.30;68.02;100061.88;4983940;28;20204;-80
2022/07/11 02:10:50;;;;;;;3.90;2.60;;;;;;;13.26;68.04;100067.38;4986273;28;20533;-79
2022/07/11 02:13:18;;;;;;;4.78;3.47;;;;;;;13.22;67.99;100072.91;4987612;28;20236;-78
2022/07/11 02:15:44;;;;;;;5.32;2.72;;;;;;;13.16;68.30;100068.88;4985015;28;20208;-79
2022/07/11 02:18:11;;;;;;;3.70;3.05;;;;;;;13.17;68.25;100075.00;4985493;28;20690;-78
2022/07/11 02:20:38;;;;;;;2.70;2.50;;;;;;;13.21;68.10;100073.88;4987158;28;20212;-80
2022/07/11 02:23:04;;;;;;;4.43;3.05;;;;;;;13.23;68.19;100077.22;4987488;28;20223;-78
2022/07/11 02:25:30;;;;;;;6.47;3.70;;;;;;;13.21;68.18;100071.22;4987349;28;20298;-79
2022/07/11 02:27:56;;;;;;;3.28;2.97;;;;;;;13.19;68.55;100073.94;4987138;28;20205;-80
2022/07/11 02:30:22;;;;;;;4.43;3.85;;;;;;;13.21;68.19;100072.06;4985487;28;20225;-78
2022/07/11 02:32:48;;;;;;;4.13;3.83;;;;;;;13.25;68.60;100080.59;4986796;28;20511;-78
2022/07/11 02:35:14;;;;;;;3.30;3.10;;;;;;;13.25;68.71;100072.69;4988224;28;20528;-79
2022/07/11 02:37:39;;;;;;;2.93;2.50;;;;;;;13.26;68.75;100074.44;4985842;28;20534;-78
2022/07/11 02:40:05;;;;;;;3.90;3.60;;;;;;;13.27;68.60;100062.94;4984797;28;20220;-79
2022/07/11 02:42:31;;;;;;;3.78;3.30;;;;;;;13.26;68.54;100058.59;4986947;28;20712;-78
2022/07/11 02:44:56;;;;;;;4.10;2.67;;;;;;;13.26;68.63;100069.16;4987837;28;20214;-79
2022/07/11 02:47:21;;;;;;;3.43;3.13;;;;;;;13.25;68.66;100070.91;4986786;28;20234;-79
2022/07/11 02:49:48;;;;;;;2.80;2.60;;;;;;;13.21;68.73;100066.78;4987285;28;20257;-80
2022/07/11 02:52:13;;;;;;;5.15;2.50;;;;;;;13.15;68.93;100068.97;4985650;28;20231;-79
2022/07/11 02:54:38;;;;;;;3.50;3.20;;;;;;;13.13;68.92;100079.66;4987389;28;20222;-79
2022/07/11 02:57:04;;;;;;;5.90;3.03;;;;;;;13.11;69.18;100080.69;4982905;28;20216;-80
2022/07/11 02:59:30;;;;;;;3.10;2.80;;;;;;;13.09;69.11;100075.50;4987155;28;20703;-78
2022/07/11 03:01:55;;;;;;;3.10;2.90;;;;;;;13.14;69.55;100080.50;4984639;28;20531;-78
2022/07/11 03:04:20;;;;;;;3.57;2.70;;;;;;;13.11;69.52;100078.06;4984755;28;20299;-79
2022/07/11 03:06:46;;;;;;;2.97;2.77;;;;;;;13.12;69.63;100079.72;4986834;28;20234;-79
2022/07/11 03:09:12;;;;;;;2.40;2.10;;;;;;;13.06;69.65;100073.91;4983941;28;20281;-78
2022/07/11 03:11:37;;;;;;;2.70;2.50;;;;;;;12.98;69.54;100072.75;4984515;28;20615;-78
2022/07/11 03:14:03;;;;;;;2.60;2.40;;;;;;;12.94;69.63;100074.75;4986515;28;20304;-79
2022/07/11 03:16:29;;;;;;;2.80;2.60;;;;;;;12.92;69.65;100071.38;4968904;28;20222;-80
2022/07/11 03:18:55;;;;;;;2.97;2.75;;;;;;;12.92;69.58;100067.88;4984445;28;20231;-79
2022/07/11 03:21:21;;;;;;;8.47;3.40;;;;;;;12.90;69.55;100067.97;4985903;28;20251;-78
2022/07/11 03:23:46;;;;;;;3.40;3.10;;;;;;;12.93;69.50;100066.94;4985075;28;20463;-78
2022/07/11 03:26:11;;;;;;;4.80;2.50;;;;;;;12.94;69.29;100064.19;4986511;28;20799;-78
2022/07/11 03:28:37;;;;;;;3.47;2.80;;;;;;;12.97;69.25;100065.78;4984046;28;20252;-78
2022/07/11 03:31:03;;;;;;;2.60;2.40;;;;;;;12.99;69.25;100070.03;4986116;28;20262;-78
2022/07/11 03:33:29;;;;;;;4.10;3.30;;;;;;;13.02;69.58;100064.53;4984349;28;20485;-78
2022/07/11 03:35:54;;;;;;;4.23;3.00;;;;;;;12.94;69.85;100064.19;4986357;28;20576;-79
2022/07/11 03:38:20;;;;;;;2.80;2.60;;;;;;;12.82;70.27;100062.34;4983290;28;20239;-79
2022/07/11 03:40:47;;;;;;;3.00;2.30;;;;;;;12.74;70.38;100062.00;4985203;28;20208;-78
2022/07/11 03:43:13;;;;;;;3.33;3.13;;;;;;;12.71;70.47;100065.69;4985970;28;20662;-80
2022/07/11 03:45:38;;;;;;;2.50;2.30;;;;;;;12.66;70.50;100067.78;4984956;28;20208;-78
2022/07/11 03:48:05;;;;;;;2.73;2.53;;;;;;;12.58;70.57;100063.03;4983609;28;20577;-78
2022/07/11 03:50:30;;;;;;;3.67;2.80;;;;;;;12.50;70.89;100062.69;4986820;28;20330;-79
2022/07/11 03:52:56;;;;;;;3.30;2.77;;;;;;;12.44;71.19;100065.69;4985483;28;20235;-78
2022/07/11 03:55:22;;;;;;;3.30;3.00;;;;;;;12.39;70.96;100065.13;4987152;28;20653;-79
2022/07/11 03:57:48;;;;;;;2.53;2.33;;;;;;;12.31;71.16;100063.00;4982641;28;20215;-80
2022/07/11 04:00:14;;;;;;;5.30;2.90;;;;;;;12.28;70.93;100060.56;4985520;28;20216;-79
2022/07/11 04:02:40;;;;;;;2.72;2.53;;;;;;;12.27;71.06;100063.31;4985465;28;20208;-78
2022/07/11 04:05:06;;;;;;;2.80;2.60;;;;;;;12.30;71.15;100063.09;4985651;28;20207;-79
2022/07/11 04:07:31;;;;;;;3.60;2.45;;;;;;;12.26;71.23;100061.59;4982912;28;20226;-78
2022/07/11 04:09:57;;;;;;;2.60;2.40;;;;;;;12.22;71.36;100060.09;4984646;28;20696;-78
2022/07/11 04:12:22;;;;;;;4.63;2.80;;;;;;;12.18;71.44;100062.94;4984854;28;20680;-78
2022/07/11 04:14:48;;;;;;;3.63;2.80;;;;;;;12.17;71.71;100065.66;4986413;28;20893;-78
2022/07/11 04:17:14;;;;;;;3.40;3.20;;;;;;;12.14;71.76;100073.75;4986040;28;20272;-78
2022/07/11 04:19:40;;;;;;;3.50;3.10;;;;;;;12.13;71.92;100069.44;4987432;28;20676;-78
2022/07/11 04:22:05;;;;;;;3.10;2.90;;;;;;;12.15;71.92;100062.25;4989572;28;20231;-78
2022/07/11 04:24:31;;;;;;;2.97;2.77;;;;;;;12.25;71.60;100066.00;4990655;28;20454;-79
2022/07/11 04:26:57;;;;;;;2.87;2.53;;;;;;;12.34;71.27;100075.13;4983972;28;20462;-79
2022/07/11 04:29:23;;;;;;;3.40;3.03;;;;;;;12.43;71.21;100074.56;4985404;28;20199;-79
2022/07/11 04:31:50;;;;;;;3.53;3.22;;;;;;;12.56;70.81;100071.97;4986704;28;20334;-78
2022/07/11 04:34:16;;;;;;;3.70;3.50;;;;;;;12.71;70.45;100070.13;4988842;28;20290;-80
2022/07/11 04:36:42;;;;;;;3.10;2.83;;;;;;;12.85;70.01;100080.59;4989195;28;20242;-79
2022/07/11 04:39:08;;;;;;;3.00;2.75;;;;;;;13.00;69.69;100084.03;4987317;28;20934;-79
2022/07/11 04:41:33;;;;;;;3.33;3.03;;;;;;;13.15;69.25;100076.88;4988600;28;20219;-79
2022/07/11 04:43:59;;;;;;;3.23;2.77;;;;;;;13.31;68.98;100066.19;4989585;28;20294;-78
2022/07/11 04:46:24;;;;;;;2.50;2.30;;;;;;;13.48;68.67;100077.31;4988079;28;20212;-78
2022/07/11 04:48:50;;;;;;;3.17;2.87;;;;;;;13.63;68.22;100083.31;4988656;28;20409;-79
2022/07/11 04:51:17;;;;;;;4.07;3.30;;;;;;;13.79;67.76;100077.81;4988208;28;20201;-78
2022/07/11 04:53:43;;;;;;;2.88;2.67;;;;;;;13.95;67.68;100074.94;4990147;28;20211;-78
2022/07/11 04:56:08;;;;;;;3.47;2.70;;;;;;;14.29;66.62;100065.50;4987612;28;21080;-78
2022/07/11 04:58:35;;;;;;;2.60;2.40;;;;;;;15.88;61.81;100059.81;4988852;28;20455;-80
2022/07/11 05:01:01;;;;;;;3.45;2.80;;;;;;;17.94;55.71;100056.13;4986129;28;20287;-81
2022/07/11 05:03:26;;;;;;;3.15;2.85;;;;;;;19.62;50.82;100048.78;4985055;28;20531;-80
2022/07/11 05:05:52;;;;;;;2.70;2.50;;;;;;;20.94;47.32;100051.19;4982379;28;20232;-80
2022/07/11 05:08:17;;;;;;;3.67;2.40;;;;;;;21.94;44.94;100047.19;4983979;28;20669;-81
2022/07/11 05:10:42;;;;;;;3.60;3.40;;;;;;;22.84;42.65;100057.34;4988168;28;20314;-78
2022/07/11 05:13:08;;;;;;;2.60;2.40;;;;;;;23.71;40.78;100045.13;4987349;28;20244;-81
2022/07/11 05:15:33;;;;;;;4.67;2.43;;;;;;;24.46;39.13;100046.47;4985024;28;20217;-79
2022/07/11 05:17:59;;;;;;;2.43;2.23;;;;;;;25.03;37.94;100034.50;4981789;28;20199;-81
2022/07/11 05:20:24;;;;;;;4.03;2.73;;;;;;;25.45;37.36;100049.28;4986438;28;20218;-81
2022/07/11 05:22:49;;;;;;;2.70;1.90;;;;;;;25.73;36.50;100041.41;4982372;28;20309;-80
2022/07/11 05:25:15;;;;;;;2.83;2.10;;;;;;;25.95;35.87;100045.03;4980607;28;21334;-81
2022/07/11 05:27:40;;;;;;;2.70;2.37;;;;;;;26.42;35.19;100039.19;4981525;28;20283;-82
2022/07/11 05:30:06;;;;;;;3.83;2.30;;;;;;;26.75;34.24;100040.59;4982251;28;20584;-79
2022/07/11 05:32:33;;;;;;;2.90;2.47;;;;;;;26.77;33.95;100041.25;4982541;28;20221;-78
2022/07/11 05:35:00;;;;;;;2.57;2.30;;;;;;;27.03;33.47;100043.34;4983180;28;21030;-79
2022/07/11 05:37:26;;;;;;;2.00;1.73;;;;;;;27.49;32.95;100038.38;4979372;28;20464;-81
2022/07/11 05:39:51;;;;;;;5.53;2.10;;;;;;;28.10;32.12;100031.44;4978719;28;20468;-79
2022/07/11 05:42:17;;;;;;;6.93;2.83;;;;;;;28.83;30.90;100035.19;4974710;28;20228;-79
2022/07/11 05:44:42;;;;;;;3.03;1.93;;;;;;;29.43;29.97;100037.09;4982835;28;20205;-82
2022/07/11 05:47:08;;;;;;;6.40;2.40;;;;;;;29.53;29.42;100034.78;4978647;28;20554;-82
2022/07/11 05:49:33;;;;;;;5.40;2.60;;;;;;;29.72;29.25;100028.53;4982415;28;20231;-82
2022/07/11 05:51:59;;;;;;;1.90;1.80;;;;;;;30.13;28.64;100037.34;4980530;28;20636;-80
2022/07/11 05:54:26;;;;;;;2.47;1.93;;;;;;;30.36;28.63;100031.44;4980263;28;20675;-79
2022/07/11 05:56:51;;;;;;;1.93;1.83;;;;;;;30.64;28.09;100028.34;4981078;28;20552;-81
2022/07/11 05:59:17;;;;;;;2.80;2.03;;;;;;;30.65;28.09;100030.84;4979479;28;20200;-79
2022/07/11 06:01:42;;;;;;;5.17;2.70;;;;;;;30.90;27.85;100027.34;4979883;28;20588;-81
2022/07/11 06:04:08;;;;;;;3.93;2.10;;;;;;;31.34;26.82;100025.50;4981147;28;20213;-79
2022/07/11 06:06:33;;;;;;;1.70;1.60;;;;;;;31.60;26.47;100010.03;4980007;28;20205;-80
2022/07/11 06:08:59;;;;;;;5.27;2.17;;;;;;;31.96;26.24;100015.47;4983383;28;20213;-78
2022/07/11 06:11:24;;;;;;;2.40;2.20;;;;;;;31.99;25.70;100022.34;4979287;28;20222;-79
2022/07/11 06:13:50;;;;;;;2.20;1.90;;;;;;;31.67;25.67;100017.03;4981669;28;20285;-81
2022/07/11 06:16:16;;;;;;;5.60;2.90;;;;;;;31.47;26.10;100019.97;4982892;28;20256;-78
2022/07/11 06:18:42;;;;;;;3.13;2.30;;;;;;;31.74;25.70;100022.41;4980910;28;20224;-80
2022/07/11 06:21:08;;;;;;;2.30;2.10;;;;;;;31.96;25.75;100025.53;4978280;28;20860;-80
2022/07/11 06:23:37;;;;;;;1.90;1.73;;;;;;;32.14;25.15;100017.34;4979034;28;20839;-80
2022/07/11 06:26:03;;;;;;;2.33;1.80;;;;;;;32.26;24.94;100008.41;4982431;28;20217;-79
2022/07/11 06:28:29;;;;;;;2.83;1.90;;;;;;;32.35;25.03;100010.59;4983516;28;20460;-81
2022/07/11 06:30:55;;;;;;;7.43;2.00;;;;;;;32.23;25.12;100006.97;4987439;28;20491;-82
2022/07/11 06:33:21;;;;;;;2.40;1.33;;;;;;;31.89;25.28;100012.00;4983636;28;20228;-81
2022/07/11 06:35:47;;;;;;;2.63;2.43;;;;;;;31.69;25.97;100011.41;4979613;28;20246;-80
2022/07/11 06:38:14;;;;;;;3.80;2.43;;;;;;;32.08;25.58;100017.41;4977652;28;20488;-79
2022/07/11 06:40:41;;;;;;;3.70;1.80;;;;;;;31.57;25.46;100013.19;4979743;28;20463;-79
2022/07/11 06:43:07;;;;;;;2.13;1.57;;;;;;;31.50;25.92;100014.09;4978615;28;20487;-79
2022/07/11 06:45:33;;;;;;;3.87;1.63;;;;;;;32.02;25.43;100011.00;4976972;28;20504;-82
2022/07/11 06:47:59;;;;;;;1.77;1.40;;;;;;;32.18;25.27;100009.56;4979036;28;20460;-81
2022/07/11 06:50:24;;;;;;;3.93;2.43;;;;;;;32.15;25.41;100015.47;4978623;28;20248;-80
2022/07/11 06:52:50;;;;;;;2.37;2.17;;;;;;;32.64;24.59;100004.56;4978554;28;20228;-82
2022/07/11 06:55:16;;;;;;;3.43;2.40;;;;;;;32.68;24.63;100009.31;4979219;28;20243;-80
2022/07/11 06:57:41;;;;;;;4.67;1.67;;;;;;;32.66;24.56;100014.13;4981026;28;20241;-82
2022/07/11 07:00:08;;;;;;;1.60;1.50;;;;;;;33.08;24.39;100005.97;4977485;28;20471;-79
2022/07/11 07:02:34;;;;;;;2.55;1.92;;;;;;;33.38;23.75;100005.84;4977814;28;21040;-79
2022/07/11 07:04:59;;;;;;;4.73;2.10;;;;;;;33.38;23.83;100005.84;4975215;28;20216;-83
2022/07/11 07:07:25;;;;;;;2.47;1.53;;;;;;;33.35;24.10;100005.47;4972915;28;20205;-79
2022/07/11 07:09:52;;;;;;;3.17;1.50;;;;;;;33.27;24.38;100006.69;4975644;28;20216;-81
2022/07/11 07:12:17;;;;;;;2.73;2.20;;;;;;;33.62;23.85;100008.53;4978628;28;20229;-79
2022/07/11 07:14:43;;;;;;;2.00;1.80;;;;;;;33.79;23.53;100006.75;4976613;28;20529;-79
2022/07/11 07:17:08;;;;;;;2.43;1.63;;;;;;;33.92;23.67;100009.22;4978812;28;20355;-82
2022/07/11 07:19:33;;;;;;;4.23;1.90;;;;;;;33.91;23.64;100002.06;4977631;28;20251;-79
2022/07/11 07:21:59;;;;;;;4.93;2.27;;;;;;;34.11;23.44;100001.72;4974197;28;20911;-82
2022/07/11 07:24:24;;;;;;;1.90;1.70;;;;;;;34.08;23.52;100002.19;4979663;28;20200;-79
2022/07/11 07:26:50;;;;;;;2.23;2.13;;;;;;;33.88;23.71;99993.56;4975357;28;20807;-79
2022/07/11 07:29:15;;;;;;;2.43;1.60;;;;;;;33.77;23.60;99997.97;4977170;28;20580;-80
2022/07/11 07:31:40;;;;;;;2.90;2.30;;;;;;;33.83;23.27;100004.38;4936952;28;1069517;-80
2022/07/11 07:34:08;;;;;;;2.17;1.73;;;;;;;33.52;23.23;100000.97;4976122;28;20702;-81
2022/07/11 07:40:21;;;;;;;3.23;1.80;;;;;;;33.54;23.34;100004.31;4964112;28;21166;-81
2022/07/11 07:42:47;;;;;;;3.83;1.80;;;;;;;33.53;23.31;99997.19;4966798;28;20480;-81
2022/07/11 07:45:12;;;;;;;1.60;1.47;;;;;;;33.17;23.40;99999.09;4969872;28;20460;-79
2022/07/11 07:47:38;;;;;;;1.93;1.50;;;;;;;33.14;23.82;99994.13;4969786;28;20439;-81
2022/07/11 07:50:05;;;;;;;1.73;1.53;;;;;;;33.44;23.52;99998.59;4971654;28;20488;-78
2022/07/11 07:52:30;;;;;;;1.60;1.50;;;;;;;33.83;22.96;99983.38;4968062;28;20233;-81
2022/07/11 07:54:55;;;;;;;3.30;1.43;;;;;;;33.95;22.88;99986.09;4976012;28;20639;-79
2022/07/11 07:57:21;;;;;;;2.63;1.70;;;;;;;33.68;22.68;99981.19;4974028;28;20217;-79
2022/07/11 07:59:48;;;;;;;1.50;1.20;;;;;;;33.55;23.06;99986.91;4973324;28;20896;-81
2022/07/11 08:02:14;;;;;;;2.23;1.40;;;;;;;33.67;22.84;99990.41;4970344;28;20484;-81
2022/07/11 08:04:39;;;;;;;1.90;1.60;;;;;;;33.63;22.67;99983.81;4973914;28;20222;-81
2022/07/11 08:07:05;;;;;;;1.47;1.37;;;;;;;33.33;23.04;99983.94;4972232;28;20251;-81
2022/07/11 08:09:30;;;;;;;3.03;1.33;;;;;;;33.47;22.87;99979.88;4973123;28;20758;-78
2022/07/11 08:11:55;;;;;;;1.50;1.40;;;;;;;33.44;23.28;99982.28;4969971;28;20910;-81
2022/07/11 08:14:22;;;;;;;2.80;1.43;;;;;;;33.39;23.34;99980.25;4973436;28;20348;-78
2022/07/11 08:16:48;;;;;;;1.63;1.47;;;;;;;33.47;23.09;99982.63;4974167;28;20556;-81
2022/07/11 08:19:13;;;;;;;1.50;1.40;;;;;;;33.53;22.68;99980.00;4971273;28;20975;-78
2022/07/11 08:21:39;;;;;;;1.57;1.30;;;;;;;33.17;23.35;99974.59;4971391;28;20228;-78
2022/07/11 08:24:05;;;;;;;1.43;1.33;;;;;;;32.61;23.72;99976.75;4975244;28;20283;-82
2022/07/11 08:26:31;;;;;;;2.23;1.40;;;;;;;32.66;23.77;99975.22;4955272;28;20241;-82
2022/07/11 08:28:56;;;;;;;1.90;1.50;;;;;;;32.92;23.65;99973.94;4971364;28;20563;-81
2022/07/11 08:31:22;;;;;;;1.30;1.20;;;;;;;32.59;24.00;99970.72;4975536;28;20233;-78
2022/07/11 08:33:48;;;;;;;1.83;1.50;;;;;;;31.24;25.84;99974.44;4971662;28;20238;-78
2022/07/11 08:36:13;;;;;;;3.87;1.40;;;;;;;30.19;27.48;99977.72;4973337;28;20983;-82
2022/07/11 08:38:43;;;;;;;2.50;1.40;;;;;;;29.44;28.31;99980.06;4967762;28;20205;-78
2022/07/11 08:41:10;;;;;;;1.70;1.60;;;;;;;28.86;29.41;99982.56;4972628;28;21007;-82
2022/07/11 08:43:36;;;;;;;1.77;1.30;;;;;;;28.60;30.07;99983.41;4968564;28;20475;-81
2022/07/11 08:46:03;;;;;;;1.47;1.37;;;;;;;28.44;30.59;99971.94;4975100;28;20475;-79
2022/07/11 08:48:30;;;;;;;1.60;1.27;;;;;;;28.49;30.38;99976.75;4981768;28;20218;-79
2022/07/11 08:50:55;;;;;;;1.40;1.30;;;;;;;28.61;30.18;99963.44;4970247;28;20484;-78
2022/07/11 08:53:21;;;;;;;3.00;1.50;;;;;;;28.71;30.33;99953.06;4970784;28;20495;-77
2022/07/11 08:55:47;;;;;;;1.00;0.90;;;;;;;28.80;30.07;99951.78;4976813;28;20744;-79
2022/07/11 08:58:44;;;;;;;1.10;0.80;;;;;;;28.76;29.43;99952.41;4985793;28;20455;-76
2022/07/11 09:01:11;;;;;;;1.10;1.00;;;;;;;27.81;29.40;99963.19;4971428;28;20471;-76
2022/07/11 09:03:36;;;;;;;1.20;1.00;;;;;;;27.05;30.56;99963.09;4971690;28;20464;-77
2022/07/11 09:06:02;;;;;;;1.10;1.00;;;;;;;26.96;30.70;99957.03;4959062;28;20468;-77
2022/07/11 09:08:29;;;;;;;1.10;1.00;;;;;;;27.13;30.38;99960.25;4974315;28;20734;-76
2022/07/11 09:10:54;;;;;;;1.17;0.90;;;;;;;27.23;30.18;99957.25;4977878;28;20480;-76
2022/07/11 09:13:20;;;;;;;2.77;1.10;;;;;;;27.29;29.93;99953.75;4969270;28;20472;-77
2022/07/11 09:15:50;;;;;;;0.93;0.87;;;;;;;27.42;29.93;99948.44;4976366;28;20584;-77
2022/07/11 09:18:24;;;;;;;1.63;0.90;;;;;;;27.67;30.04;99950.66;4978285;28;20663;-77
2022/07/11 09:26:39;;;;;;;2.00;1.37;;;;;;;27.82;31.78;99935.19;4974335;28;21634;-76
2022/07/11 09:29:14;;;;;;;1.20;1.10;;;;;;;27.13;33.22;99955.69;4975516;28;20606;-77
2022/07/11 09:31:41;;;;;;;1.40;1.23;;;;;;;26.98;33.71;99952.28;4974135;28;20492;-76
2022/07/11 09:34:12;;;;;;;1.70;1.40;;;;;;;27.03;33.73;99949.84;4972978;28;20452;-77
2022/07/11 09:36:41;;;;;;;2.13;1.57;;;;;;;27.24;33.56;99948.94;4974002;28;20507;-76
2022/07/11 09:39:09;;;;;;;1.67;1.43;;;;;;;27.51;33.31;99941.00;4975743;28;20460;-76
2022/07/11 09:41:36;;;;;;;2.53;1.80;;;;;;;27.47;33.66;99942.47;4975528;28;20562;-77
2022/07/11 09:44:22;;;;;;;2.50;1.40;;;;;;;27.76;33.17;99933.22;4969139;28;20502;-77
2022/07/11 09:46:50;;;;;;;1.30;1.20;;;;;;;27.89;32.67;99925.22;4976299;28;20972;-77
2022/07/11 09:49:17;;;;;;;2.17;1.40;;;;;;;28.07;32.84;99929.22;4976044;28;20452;-76
2022/07/11 09:51:43;;;;;;;2.90;1.40;;;;;;;27.86;32.71;99927.50;4976338;28;20484;-76
2022/07/11 09:54:10;;;;;;;2.30;1.43;;;;;;;27.86;32.51;99925.63;4973021;28;20472;-77
2022/07/11 09:56:41;;;;;;;2.90;1.47;;;;;;;28.06;32.76;99928.41;4975515;28;20479;-77
2022/07/11 09:59:10;;;;;;;1.30;1.20;;;;;;;28.41;32.27;99920.97;4971996;28;20838;-77
2022/07/11 10:01:36;;;;;;;1.50;1.40;;;;;;;28.58;31.99;99926.00;4976124;28;20591;-77
2022/07/11 10:04:05;;;;;;;2.35;1.60;;;;;;;28.59;31.73;99933.06;4971635;28;20484;-77
2022/07/11 10:06:30;;;;;;;1.80;1.70;;;;;;;28.60;31.86;99921.25;4972087;28;20719;-76
2022/07/11 10:08:56;;;;;;;3.93;1.37;;;;;;;28.57;31.86;99921.63;4979398;28;20788;-77
2022/07/11 10:11:21;;;;;;;1.43;1.33;;;;;;;28.54;31.83;99924.75;4979173;28;20217;-77
2022/07/11 10:13:48;;;;;;;1.97;1.20;;;;;;;28.64;31.58;99927.88;4973717;28;20589;-77
2022/07/11 10:16:21;;;;;;;1.77;1.40;;;;;;;28.83;31.54;99920.81;4972908;28;20689;-77
2022/07/11 10:19:07;;;;;;;2.13;1.60;;;;;;;29.16;30.93;99918.06;4977725;28;20503;-77
2022/07/11 10:21:47;;;;;;;2.37;1.60;;;;;;;29.38;30.47;99920.50;4980407;28;20464;-77
2022/07/11 10:24:30;;;;;;;1.40;1.30;;;;;;;29.18;31.00;99920.59;4980931;28;20616;-77
2022/07/11 10:27:43;;;;;;;1.27;1.17;;;;;;;29.07;30.57;99930.16;4976534;28;20503;-77
2022/07/11 10:30:08;;;;;;;2.03;1.87;;;;;;;28.96;31.17;99919.97;4948583;28;20472;-77
2022/07/11 10:33:05;;;;;;;1.53;1.43;;;;;;;29.01;31.39;99922.88;4949301;28;21098;-77
2022/07/11 10:35:30;;;;;;;2.10;1.90;;;;;;;28.95;31.47;99924.56;4950044;28;20578;-77
2022/07/11 10:37:56;;;;;;;2.23;1.87;;;;;;;28.98;31.61;99928.72;4941509;28;20975;-77
2022/07/11 10:40:47;;;;;;;2.63;1.23;;;;;;;28.98;31.57;99923.31;4943404;28;20198;-76
2022/07/11 10:43:16;;;;;;;1.40;1.30;;;;;;;28.90;32.08;99921.63;4939131;28;20861;-77
2022/07/11 10:46:00;;;;;;;4.07;1.83;;;;;;;28.88;31.89;99921.84;4940167;28;20496;-77
2022/07/11 10:48:28;;;;;;;1.80;1.70;;;;;;;28.62;31.83;99921.84;4938966;28;21252;-77
2022/07/11 10:51:03;;;;;;;2.07;1.40;;;;;;;28.68;31.88;99916.44;4943104;28;20963;-76
2022/07/11 10:53:33;;;;;;;5.23;1.60;;;;;;;28.68;31.93;99915.63;4942146;28;21060;-77
2022/07/11 10:56:23;;;;;;;2.03;1.43;;;;;;;28.74;32.18;99906.66;4937811;28;20958;-76
2022/07/11 10:59:04;;;;;;;2.70;1.47;;;;;;;28.90;32.27;99906.25;4936773;28;20578;-76
2022/07/11 11:01:30;;;;;;;2.70;2.50;;;;;;;28.87;31.88;99909.38;4937928;28;20470;-76
2022/07/11 11:04:35;;;;;;;1.90;1.70;;;;;;;28.91;31.91;99904.38;4936050;28;20457;-76
2022/07/11 11:07:00;;;;;;;2.20;2.00;;;;;;;28.99;32.04;99898.72;4936558;28;20202;-76
2022/07/11 11:09:38;;;;;;;2.43;1.60;;;;;;;28.96;32.16;99911.84;4938743;28;20822;-77
2022/07/11 11:12:04;;;;;;;2.60;1.40;;;;;;;28.87;32.45;99897.72;4943596;28;20240;-77
2022/07/11 11:14:30;;;;;;;2.80;1.77;;;;;;;28.85;32.03;99892.53;4942829;28;20446;-77
2022/07/11 11:17:34;;;;;;;1.60;1.50;;;;;;;28.96;32.51;99892.94;4941673;28;20887;-76
2022/07/11 11:20:54;;;;;;;1.53;1.30;;;;;;;28.95;32.81;99897.50;4949210;28;20552;-78
2022/07/11 11:23:37;;;;;;;1.40;1.30;;;;;;;28.74;32.90;99895.84;4829049;29;20493;-76
2022/07/11 11:26:15;;;;;;;2.60;1.90;;;;;;;28.56;33.23;99896.47;4845477;29;20819;-77
2022/07/11 11:29:01;;;;;;;1.80;1.70;;;;;;;28.43;33.92;99893.78;4941333;28;21045;-76
2022/07/11 11:31:32;;;;;;;2.33;1.60;;;;;;;28.24;34.00;99900.78;4938795;28;20917;-76
2022/07/11 11:34:00;;;;;;;2.50;2.23;;;;;;;27.80;34.94;99900.28;4942610;28;20465;-75
2022/07/11 11:36:27;;;;;;;2.47;2.27;;;;;;;27.50;35.05;99891.63;4940129;28;20921;-77
2022/07/11 11:38:56;;;;;;;2.50;1.90;;;;;;;27.34;35.44;99887.41;4928064;28;20512;-77